createdAt,value
2022-10-14T00:00:25.202Z,12.90
2022-10-14T00:02:27.685Z,13.00
2022-10-14T00:04:30.892Z,13.00
2022-10-14T00:06:33.898Z,13.00
2022-10-14T00:08:37.712Z,12.90
2022-10-14T00:10:40.426Z,13.00
2022-10-14T00:12:42.889Z,13.00
2022-10-14T00:17:01.684Z,13.00
2022-10-14T00:19:04.607Z,13.00
2022-10-14T00:21:07.097Z,13.00
2022-10-14T00:23:11.070Z,13.00
2022-10-14T00:25:13.723Z,13.00
2022-10-14T00:27:16.294Z,13.10
2022-10-14T00:29:19.467Z,13.10
2022-10-14T00:31:22.106Z,13.00
2022-10-14T00:33:25.087Z,13.00
2022-10-14T00:35:28.013Z,13.10
2022-10-14T00:37:30.590Z,13.00
2022-10-14T00:39:33.250Z,13.00
2022-10-14T00:41:35.953Z,13.00
2022-10-14T00:43:51.671Z,12.90
2022-10-14T00:45:54.227Z,12.90
2022-10-14T00:47:57.713Z,13.00
2022-10-14T00:50:00.736Z,13.00
2022-10-14T00:52:06.329Z,12.90
2022-10-14T00:54:10.075Z,12.90
2022-10-14T00:56:14.038Z,13.00
2022-10-14T00:58:16.728Z,13.00
2022-10-14T01:00:20.618Z,13.00
2022-10-14T01:02:23.517Z,13.00
2022-10-14T01:04:26.736Z,13.10
2022-10-14T01:06:37.562Z,13.10
2022-10-14T01:08:41.990Z,13.10
2022-10-14T01:10:46.394Z,13.10
2022-10-14T01:12:52.489Z,13.00
2022-10-14T01:14:58.778Z,13.00
2022-10-14T01:17:03.051Z,12.90
2022-10-14T01:19:08.544Z,13.00
2022-10-14T01:21:14.232Z,13.00
2022-10-14T01:23:21.704Z,13.00
2022-10-14T01:25:26.538Z,13.00
2022-10-14T01:27:40.279Z,13.10
2022-10-14T01:29:51.474Z,13.00
2022-10-14T01:31:56.293Z,13.10
2022-10-14T01:34:00.080Z,13.10
2022-10-14T01:36:04.330Z,13.20
2022-10-14T01:38:10.155Z,13.10
2022-10-14T01:40:14.559Z,13.10
2022-10-14T01:42:19.148Z,13.10
2022-10-14T01:44:23.587Z,13.10
2022-10-14T01:46:26.977Z,13.20
2022-10-14T01:48:31.722Z,13.10
2022-10-14T01:50:35.194Z,13.10
2022-10-14T01:52:39.915Z,13.10
2022-10-14T01:54:44.307Z,13.10
2022-10-14T01:56:47.302Z,13.10
2022-10-14T02:01:08.695Z,13.20
2022-10-14T02:03:13.205Z,13.20
2022-10-14T02:05:17.919Z,13.20
2022-10-14T02:07:22.328Z,13.20
2022-10-14T02:09:27.335Z,13.20
2022-10-14T02:11:32.054Z,13.20
2022-10-14T02:13:37.946Z,13.20
2022-10-14T02:15:43.265Z,13.20
2022-10-14T02:17:50.112Z,13.30
2022-10-14T02:19:55.034Z,13.20
2022-10-14T02:22:00.155Z,13.20
2022-10-14T02:24:04.615Z,13.20
2022-10-14T02:26:07.655Z,13.20
2022-10-14T02:28:12.030Z,13.20
2022-10-14T02:30:15.542Z,13.20
2022-10-14T02:32:20.459Z,13.10
2022-10-14T02:34:25.537Z,13.10
2022-10-14T02:36:28.867Z,13.10
2022-10-14T02:38:31.750Z,13.20
2022-10-14T02:40:36.267Z,13.20
2022-10-14T02:42:38.879Z,13.30
2022-10-14T02:44:51.994Z,13.30
2022-10-14T02:46:55.498Z,13.30
2022-10-14T02:48:58.231Z,13.30
2022-10-14T02:51:00.853Z,13.40
2022-10-14T02:53:03.448Z,13.30
2022-10-14T02:55:06.841Z,13.20
2022-10-14T02:57:09.419Z,13.20
2022-10-14T02:59:11.941Z,13.20
2022-10-14T03:01:14.593Z,13.20
2022-10-14T03:03:17.330Z,13.30
2022-10-14T03:05:19.918Z,13.30
2022-10-14T03:07:22.706Z,13.30
2022-10-14T03:09:26.386Z,13.30
2022-10-14T03:11:30.308Z,13.30
2022-10-14T03:13:34.698Z,13.20
2022-10-14T03:15:37.379Z,13.20
2022-10-14T03:17:40.355Z,13.20
2022-10-14T03:19:43.125Z,13.20
2022-10-14T03:21:48.543Z,13.20
2022-10-14T03:23:52.952Z,13.20
2022-10-14T03:28:13.574Z,13.20
2022-10-14T03:30:18.122Z,13.20
2022-10-14T03:32:22.886Z,13.10
2022-10-14T03:34:27.547Z,13.10
2022-10-14T03:36:32.033Z,13.10
2022-10-14T03:38:34.606Z,13.10
2022-10-14T03:40:37.710Z,13.20
2022-10-14T03:42:42.118Z,13.30
2022-10-14T03:44:45.594Z,13.20
2022-10-14T03:46:50.005Z,13.20
2022-10-14T03:51:10.098Z,13.30
2022-10-14T03:53:13.134Z,13.30
2022-10-14T03:55:15.958Z,13.30
2022-10-14T03:57:18.829Z,13.20
2022-10-14T03:59:31.290Z,13.30
2022-10-14T04:01:34.137Z,13.30
2022-10-14T04:03:40.486Z,13.20
2022-10-14T04:05:43.074Z,13.30
2022-10-14T04:07:47.462Z,13.30
2022-10-14T04:09:50.090Z,13.30
2022-10-14T04:11:53.078Z,13.30
2022-10-14T04:13:58.044Z,13.30
2022-10-14T04:16:03.606Z,13.30
2022-10-14T04:18:08.017Z,13.20
2022-10-14T04:20:14.131Z,13.20
2022-10-14T04:22:17.044Z,13.20
2022-10-14T04:24:20.783Z,13.20
2022-10-14T04:26:25.295Z,13.20
2022-10-14T04:28:27.890Z,13.20
2022-10-14T04:30:32.586Z,13.20
2022-10-14T04:32:35.542Z,13.10
2022-10-14T04:34:40.015Z,13.20
2022-10-14T04:36:43.135Z,13.00
2022-10-14T04:38:47.536Z,13.30
2022-10-14T04:40:50.135Z,13.30
2022-10-14T04:42:55.883Z,13.20
2022-10-14T04:45:01.883Z,13.20
2022-10-14T04:47:06.345Z,13.20
2022-10-14T04:49:09.057Z,13.20
2022-10-14T04:51:13.632Z,13.20
2022-10-14T04:53:21.876Z,13.30
2022-10-14T04:55:24.326Z,13.20
2022-10-14T04:57:27.206Z,13.20
2022-10-14T04:59:30.707Z,13.20
2022-10-14T05:01:35.138Z,13.20
2022-10-14T05:03:37.803Z,13.20
2022-10-14T05:05:40.414Z,13.20
2022-10-14T05:07:43.038Z,13.20
2022-10-14T05:09:49.755Z,13.20
2022-10-14T05:11:53.628Z,13.30
2022-10-14T05:13:58.307Z,13.20
2022-10-14T05:16:01.483Z,13.20
2022-10-14T05:18:04.413Z,13.20
2022-10-14T05:20:09.686Z,13.20
2022-10-14T05:22:12.563Z,13.10
2022-10-14T05:24:16.981Z,13.20
2022-10-14T05:26:19.875Z,13.20
2022-10-14T05:28:23.346Z,13.20
2022-10-14T05:30:28.657Z,13.20
2022-10-14T05:32:30.842Z,13.20
2022-10-14T05:34:35.343Z,13.20
2022-10-14T05:36:39.046Z,13.20
2022-10-14T05:38:41.738Z,13.20
2022-10-14T05:40:51.554Z,13.20
2022-10-14T05:42:54.239Z,13.30
2022-10-14T05:44:57.117Z,13.30
2022-10-14T05:46:59.848Z,13.30
2022-10-14T05:51:20.581Z,13.30
2022-10-14T05:53:23.688Z,13.30
2022-10-14T05:55:28.107Z,13.30
2022-10-14T05:57:33.063Z,13.30
2022-10-14T05:59:35.674Z,13.20
2022-10-14T06:01:39.524Z,13.30
2022-10-14T06:03:42.123Z,13.20
2022-10-14T06:05:45.727Z,13.20
2022-10-14T06:07:48.321Z,13.10
2022-10-14T06:09:52.196Z,13.10
2022-10-14T06:11:55.996Z,13.10
2022-10-14T06:13:58.633Z,13.10
2022-10-14T06:16:03.366Z,13.00
2022-10-14T06:18:05.924Z,13.10
2022-10-14T06:20:09.551Z,13.10
2022-10-14T06:22:12.053Z,13.10
2022-10-14T06:24:14.752Z,13.10
2022-10-14T06:26:17.211Z,13.10
2022-10-14T06:28:19.868Z,13.20
2022-10-14T06:30:22.422Z,13.10
2022-10-14T06:32:25.237Z,13.10
2022-10-14T06:34:27.783Z,13.10
2022-10-14T06:36:30.282Z,13.20
2022-10-14T06:38:32.902Z,13.20
2022-10-14T06:40:35.823Z,13.10
2022-10-14T06:42:38.338Z,13.20
2022-10-14T06:44:40.886Z,13.20
2022-10-14T06:46:43.439Z,13.10
2022-10-14T06:48:50.191Z,13.10
2022-10-14T06:50:50.267Z,13.10
2022-10-14T06:52:52.763Z,13.10
2022-10-14T06:54:55.239Z,13.10
2022-10-14T06:56:57.735Z,13.20
2022-10-14T06:59:00.711Z,13.20
2022-10-14T07:01:03.716Z,13.20
2022-10-14T07:03:06.242Z,13.20
2022-10-14T07:05:09.683Z,13.20
2022-10-14T07:07:12.303Z,13.20
2022-10-14T07:09:14.781Z,13.20
2022-10-14T07:11:17.291Z,13.20
2022-10-14T07:13:19.871Z,13.30
2022-10-14T07:15:22.617Z,13.40
2022-10-14T07:17:25.435Z,13.40
2022-10-14T07:19:27.955Z,13.40
2022-10-14T07:21:30.582Z,13.40
2022-10-14T07:23:33.568Z,13.50
2022-10-14T07:25:36.142Z,13.50
2022-10-14T07:27:38.629Z,13.50
2022-10-14T07:29:41.130Z,13.50
2022-10-14T07:31:43.586Z,13.70
2022-10-14T07:33:46.101Z,13.60
2022-10-14T07:35:48.569Z,13.60
2022-10-14T07:37:51.089Z,13.60
2022-10-14T07:39:53.571Z,13.60
2022-10-14T07:41:56.068Z,13.70
2022-10-14T07:44:01.940Z,13.70
2022-10-14T07:46:07.089Z,13.80
2022-10-14T07:48:09.844Z,13.80
2022-10-14T07:50:12.314Z,13.80
2022-10-14T07:54:31.801Z,14.00
2022-10-14T07:56:35.185Z,14.00
2022-10-14T07:58:42.202Z,14.10
2022-10-14T08:00:41.999Z,14.10
2022-10-14T08:02:44.520Z,14.20
2022-10-14T08:04:47.192Z,14.30
2022-10-14T08:06:49.669Z,14.40
2022-10-14T08:08:52.598Z,14.50
2022-10-14T08:11:01.563Z,14.60
2022-10-14T08:13:04.478Z,14.60
2022-10-14T08:15:07.755Z,14.70
2022-10-14T08:17:10.359Z,14.70
2022-10-14T08:21:28.722Z,14.70
2022-10-14T08:23:32.374Z,14.80
2022-10-14T08:25:35.576Z,14.80
2022-10-14T08:27:38.077Z,14.90
2022-10-14T08:29:40.654Z,14.80
2022-10-14T08:31:43.145Z,14.80
2022-10-14T08:33:45.634Z,14.80
2022-10-14T08:35:53.006Z,14.80
2022-10-14T08:37:57.244Z,14.80
2022-10-14T08:39:59.954Z,14.90
2022-10-14T08:42:16.103Z,15.00
2022-10-14T08:44:20.317Z,14.90
2022-10-14T08:46:24.621Z,14.90
2022-10-14T08:48:28.788Z,14.90
2022-10-14T08:50:32.964Z,14.90
2022-10-14T08:52:38.031Z,15.00
2022-10-14T08:54:43.001Z,15.00
2022-10-14T08:56:45.667Z,15.00
2022-10-14T08:58:49.673Z,15.00
2022-10-14T09:00:52.770Z,15.00
2022-10-14T09:02:55.446Z,15.10
2022-10-14T09:04:58.977Z,15.20
2022-10-14T09:07:02.075Z,15.20
2022-10-14T09:09:06.685Z,15.20
2022-10-14T09:11:14.279Z,15.30
2022-10-14T09:13:20.385Z,15.30
2022-10-14T09:15:25.390Z,15.30
2022-10-14T09:17:34.110Z,15.40
2022-10-14T09:21:54.765Z,15.40
2022-10-14T09:24:00.190Z,15.50
2022-10-14T09:26:06.131Z,15.40
2022-10-14T09:28:09.785Z,15.40
2022-10-14T09:30:17.061Z,15.40
2022-10-14T09:32:22.453Z,15.50
2022-10-14T09:34:28.147Z,15.40
2022-10-14T09:36:30.677Z,15.50
2022-10-14T09:38:33.373Z,15.50
2022-10-14T09:40:37.082Z,15.40
2022-10-14T09:42:43.511Z,15.50
2022-10-14T09:44:50.260Z,15.50
2022-10-14T09:46:54.942Z,15.60
2022-10-14T09:48:58.436Z,15.50
2022-10-14T09:51:03.966Z,15.60
2022-10-14T09:53:11.034Z,15.60
2022-10-14T09:55:18.518Z,15.70
2022-10-14T09:57:21.292Z,15.80
2022-10-14T10:01:42.099Z,15.80
2022-10-14T10:03:45.503Z,15.70
2022-10-14T10:05:49.947Z,15.80
2022-10-14T10:08:02.676Z,15.80
2022-10-14T10:10:12.063Z,15.90
2022-10-14T10:12:22.949Z,15.90
2022-10-14T10:14:26.228Z,16.00
2022-10-14T10:16:30.729Z,16.00
2022-10-14T10:18:33.429Z,16.10
2022-10-14T10:20:36.091Z,16.10
2022-10-14T10:22:39.285Z,16.10
2022-10-14T10:24:42.083Z,16.10
2022-10-14T10:26:44.719Z,16.00
2022-10-14T10:28:48.440Z,16.10
2022-10-14T10:30:56.105Z,16.10
2022-10-14T10:33:02.890Z,16.10
2022-10-14T10:35:13.357Z,16.10
2022-10-14T10:37:24.395Z,16.10
2022-10-14T10:39:29.189Z,16.10
2022-10-14T10:42:05.033Z,16.10
2022-10-14T10:44:25.836Z,16.20
2022-10-14T10:46:40.704Z,16.20
2022-10-14T10:48:45.538Z,16.30
2022-10-14T10:50:51.983Z,16.30
2022-10-14T10:53:03.391Z,16.30
2022-10-14T10:55:09.796Z,16.30
2022-10-14T10:57:15.413Z,16.40
2022-10-14T10:59:31.534Z,16.60
2022-10-14T11:01:37.653Z,16.60
2022-10-14T11:03:46.767Z,16.70
2022-10-14T11:05:55.439Z,16.70
2022-10-14T11:08:17.944Z,16.70
2022-10-14T11:10:40.098Z,16.70
2022-10-14T11:12:45.364Z,16.80
2022-10-14T11:15:07.191Z,16.70
2022-10-14T11:17:12.022Z,16.80
2022-10-14T11:19:17.922Z,16.80
2022-10-14T11:21:22.858Z,16.80
2022-10-14T11:23:44.505Z,16.80
2022-10-14T11:25:48.988Z,16.80
2022-10-14T11:27:53.328Z,16.70
2022-10-14T11:30:01.434Z,16.70
2022-10-14T11:32:06.374Z,16.70
2022-10-14T11:34:30.786Z,16.70
2022-10-14T11:36:35.750Z,16.70
2022-10-14T11:38:42.752Z,16.70
2022-10-14T11:40:49.182Z,16.70
2022-10-14T11:42:55.925Z,16.80
2022-10-14T11:45:04.266Z,16.80
2022-10-14T11:47:09.915Z,16.70
2022-10-14T11:51:35.599Z,16.70
2022-10-14T11:53:43.309Z,16.70
2022-10-14T11:55:49.792Z,16.70
2022-10-14T11:57:53.346Z,16.70
2022-10-14T11:59:58.950Z,16.70
2022-10-14T12:02:03.334Z,16.70
2022-10-14T12:04:20.897Z,16.70
2022-10-14T12:06:26.433Z,16.80
2022-10-14T12:08:33.235Z,16.80
2022-10-14T12:10:37.705Z,16.70
2022-10-14T12:12:40.894Z,16.70
2022-10-14T12:14:47.732Z,16.70
2022-10-14T12:16:50.721Z,16.80
2022-10-14T12:18:55.038Z,16.80
2022-10-14T12:21:01.762Z,16.80
2022-10-14T12:23:06.055Z,16.80
2022-10-14T12:25:12.118Z,16.80
2022-10-14T12:27:15.373Z,16.90
2022-10-14T12:29:21.335Z,16.80
2022-10-14T12:31:26.887Z,16.90
2022-10-14T12:33:29.359Z,16.90
2022-10-14T12:35:51.689Z,16.90
2022-10-14T12:40:18.234Z,16.90
2022-10-14T12:42:21.602Z,16.90
2022-10-14T12:44:26.129Z,16.90
2022-10-14T12:46:29.317Z,16.90
2022-10-14T12:48:34.170Z,16.90
2022-10-14T12:50:37.816Z,17.00
2022-10-14T12:52:40.990Z,17.00
2022-10-14T12:54:47.182Z,17.00
2022-10-14T12:56:57.466Z,17.00
2022-10-14T12:59:01.118Z,17.00
2022-10-14T13:01:05.466Z,16.90
2022-10-14T13:03:17.405Z,17.00
2022-10-14T13:05:24.594Z,17.00
2022-10-14T13:07:47.559Z,17.00
2022-10-14T13:09:36.085Z,16.90
2022-10-14T13:11:39.492Z,16.80
2022-10-14T13:13:50.684Z,16.70
2022-10-14T13:15:53.188Z,16.70
2022-10-14T13:17:55.842Z,16.50
2022-10-14T13:19:58.317Z,16.50
2022-10-14T13:22:01.334Z,16.50
2022-10-14T13:24:05.573Z,16.50
2022-10-14T13:26:15.313Z,16.50
2022-10-14T13:28:22.785Z,16.50
2022-10-14T13:30:31.539Z,16.60
2022-10-14T13:32:34.369Z,16.50
2022-10-14T13:34:38.897Z,16.50
2022-10-14T13:36:43.987Z,16.60
2022-10-14T13:38:48.428Z,16.60
2022-10-14T13:40:51.948Z,16.50
2022-10-14T13:42:56.111Z,16.50
2022-10-14T13:45:01.805Z,16.50
2022-10-14T13:47:04.515Z,16.50
2022-10-14T13:49:08.325Z,16.50
2022-10-14T13:51:36.931Z,16.30
2022-10-14T13:53:26.121Z,16.30
2022-10-14T13:55:29.710Z,16.20
2022-10-14T13:57:54.010Z,16.10
2022-10-14T13:59:44.278Z,16.20
2022-10-14T14:01:41.924Z,16.20
2022-10-14T14:03:45.467Z,16.00
2022-10-14T14:05:49.342Z,16.00
2022-10-14T14:10:01.121Z,16.00
2022-10-14T14:12:04.885Z,16.00
2022-10-14T14:14:09.720Z,15.90
2022-10-14T14:16:18.088Z,15.80
2022-10-14T14:18:33.938Z,15.80
2022-10-14T14:20:33.415Z,15.80
2022-10-14T14:22:37.673Z,15.90
2022-10-14T14:24:40.164Z,15.90
2022-10-14T14:26:42.777Z,15.80
2022-10-14T14:28:48.357Z,15.80
2022-10-14T14:30:54.537Z,15.80
2022-10-14T14:32:57.788Z,15.90
2022-10-14T14:35:00.900Z,15.80
2022-10-14T14:39:14.096Z,15.80
2022-10-14T14:41:18.294Z,15.80
2022-10-14T14:43:20.783Z,15.80
2022-10-14T14:47:39.802Z,15.90
2022-10-14T14:49:44.172Z,15.90
2022-10-14T14:51:46.994Z,16.00
2022-10-14T14:53:51.370Z,15.90
2022-10-14T14:56:05.863Z,15.90
2022-10-14T14:58:16.010Z,15.90
2022-10-14T15:00:19.231Z,15.90
2022-10-14T15:02:22.807Z,15.80
2022-10-14T15:04:26.577Z,15.90
2022-10-14T15:06:30.046Z,15.90
2022-10-14T15:08:34.449Z,15.80
2022-10-14T15:10:36.924Z,15.80
2022-10-14T15:12:41.445Z,15.70
2022-10-14T15:14:45.662Z,15.70
2022-10-14T15:16:50.665Z,15.60
2022-10-14T15:18:57.509Z,15.60
2022-10-14T15:21:08.261Z,15.60
2022-10-14T15:23:28.269Z,15.60
2022-10-14T15:25:31.367Z,15.60
2022-10-14T15:27:44.381Z,15.60
2022-10-14T15:29:46.124Z,15.60
2022-10-14T15:31:50.841Z,15.60
2022-10-14T15:33:53.334Z,15.60
2022-10-14T15:35:56.726Z,15.60
2022-10-14T15:37:59.183Z,15.60
2022-10-14T15:40:04.874Z,15.50
2022-10-14T15:42:10.401Z,15.50
2022-10-14T15:44:13.012Z,15.50
2022-10-14T15:46:33.756Z,15.40
2022-10-14T15:48:36.339Z,15.50
2022-10-14T15:50:38.933Z,15.40
2022-10-14T15:52:41.476Z,15.50
2022-10-14T15:54:45.239Z,15.50
2022-10-14T15:56:48.168Z,15.50
2022-10-14T15:58:50.882Z,15.50
2022-10-14T16:00:53.379Z,15.60
2022-10-14T16:02:57.910Z,15.40
2022-10-14T16:05:19.227Z,15.50
2022-10-14T16:07:04.805Z,15.60
2022-10-14T16:09:07.357Z,15.50
2022-10-14T16:11:12.347Z,15.50
2022-10-14T16:13:15.250Z,15.50
2022-10-14T16:17:36.758Z,15.40
2022-10-14T16:19:39.258Z,15.40
2022-10-14T16:21:41.927Z,15.40
2022-10-14T16:26:01.323Z,15.40
2022-10-14T16:28:09.058Z,15.40
2022-10-14T16:30:11.182Z,15.40
2022-10-14T16:32:14.242Z,15.40
2022-10-14T16:34:16.853Z,15.40
2022-10-14T16:36:19.779Z,15.40
2022-10-14T16:38:23.565Z,15.40
2022-10-14T16:40:26.053Z,15.40
2022-10-14T16:42:28.573Z,15.40
2022-10-14T16:44:32.525Z,15.30
2022-10-14T16:46:53.167Z,15.40
2022-10-14T16:48:55.653Z,15.40
2022-10-14T16:50:58.177Z,15.30
2022-10-14T16:53:19.547Z,15.30
2022-10-14T16:55:22.937Z,15.20
2022-10-14T16:57:25.441Z,15.30
2022-10-14T16:59:28.205Z,15.30
2022-10-14T17:01:31.031Z,15.20
2022-10-14T17:03:33.780Z,15.30
2022-10-14T17:05:36.366Z,15.30
2022-10-14T17:07:41.079Z,15.30
2022-10-14T17:09:43.582Z,15.30
2022-10-14T17:11:46.537Z,15.30
2022-10-14T17:13:51.621Z,15.30
2022-10-14T17:15:58.473Z,15.30
2022-10-14T17:18:00.941Z,15.20
2022-10-14T17:20:03.838Z,15.20
2022-10-14T17:22:06.297Z,15.20
2022-10-14T17:24:08.899Z,15.20
2022-10-14T17:26:12.421Z,15.20
2022-10-14T17:28:15.332Z,15.20
2022-10-14T17:30:18.190Z,15.20
2022-10-14T17:32:21.686Z,15.20
2022-10-14T17:34:24.607Z,15.20
2022-10-14T17:36:27.700Z,15.20
2022-10-14T17:38:30.602Z,15.20
2022-10-14T17:40:33.387Z,15.20
2022-10-14T17:42:35.978Z,15.20
2022-10-14T17:44:43.440Z,15.20
2022-10-14T17:46:43.346Z,15.20
2022-10-14T17:48:47.622Z,15.20
2022-10-14T17:50:50.735Z,15.20
2022-10-14T17:55:09.664Z,15.20
2022-10-14T17:57:12.196Z,15.20
2022-10-14T17:59:14.817Z,15.20
2022-10-14T18:01:17.305Z,15.20
2022-10-14T18:03:19.830Z,15.20
2022-10-14T18:05:23.865Z,15.20
2022-10-14T18:07:26.425Z,15.20
2022-10-14T18:09:28.939Z,15.20
2022-10-14T18:11:56.050Z,15.20
2022-10-14T18:13:37.475Z,15.20
2022-10-14T18:15:40.949Z,15.20
2022-10-14T18:17:44.127Z,15.10
2022-10-14T18:19:51.872Z,15.10
2022-10-14T18:21:52.612Z,15.10
2022-10-14T18:23:56.947Z,15.20
2022-10-14T18:26:06.276Z,15.20
2022-10-14T18:28:09.450Z,15.20
2022-10-14T18:30:12.934Z,15.10
2022-10-14T18:32:15.850Z,15.20
2022-10-14T18:34:18.617Z,15.20
2022-10-14T18:36:22.781Z,15.10
2022-10-14T18:38:26.757Z,15.20
2022-10-14T18:40:30.114Z,15.10
2022-10-14T18:42:32.820Z,15.10
2022-10-14T18:44:40.941Z,15.10
2022-10-14T18:46:43.744Z,15.10
2022-10-14T18:48:47.662Z,15.10
2022-10-14T18:50:57.359Z,15.00
2022-10-14T18:53:00.251Z,15.10
2022-10-14T18:55:03.038Z,15.00
2022-10-14T18:57:06.038Z,15.00
2022-10-14T18:59:09.815Z,15.00
2022-10-14T19:01:14.082Z,15.00
2022-10-14T19:03:16.870Z,15.00
2022-10-14T19:05:19.731Z,15.00
2022-10-14T19:07:22.541Z,15.00
2022-10-14T19:09:27.319Z,15.00
2022-10-14T19:11:31.583Z,14.90
2022-10-14T19:13:34.520Z,15.00
2022-10-14T19:15:45.210Z,15.00
2022-10-14T19:17:53.632Z,15.00
2022-10-14T19:22:09.959Z,14.90
2022-10-14T19:24:13.004Z,14.90
2022-10-14T19:28:19.990Z,14.90
2022-10-14T19:30:23.048Z,14.90
2022-10-14T19:32:25.794Z,14.90
2022-10-14T19:34:28.965Z,14.90
2022-10-14T19:36:32.812Z,15.00
2022-10-14T19:38:36.635Z,15.00
2022-10-14T19:40:40.102Z,14.90
2022-10-14T19:42:42.971Z,14.90
2022-10-14T19:44:45.810Z,14.90
2022-10-14T19:46:48.580Z,14.90
2022-10-14T19:48:51.386Z,14.90
2022-10-14T19:50:54.086Z,14.90
2022-10-14T19:55:12.261Z,14.90
2022-10-14T19:57:15.153Z,14.90
2022-10-14T19:59:18.175Z,14.80
2022-10-14T20:01:22.938Z,14.80
2022-10-14T20:03:26.437Z,14.80
2022-10-14T20:05:30.938Z,14.70
2022-10-14T20:07:34.097Z,14.70
2022-10-14T20:09:37.055Z,14.70
2022-10-14T20:11:40.601Z,14.70
2022-10-14T20:13:44.521Z,14.60
2022-10-14T20:15:54.343Z,14.50
2022-10-14T20:17:57.668Z,14.60
2022-10-14T20:20:00.858Z,14.60
2022-10-14T20:22:03.607Z,14.70
2022-10-14T20:24:06.502Z,14.70
2022-10-14T20:26:10.920Z,14.70
2022-10-14T20:28:13.589Z,14.70
2022-10-14T20:30:16.419Z,14.60
2022-10-14T20:32:18.985Z,14.60
2022-10-14T20:34:21.839Z,14.60
2022-10-14T20:36:24.320Z,14.60
2022-10-14T20:38:26.980Z,14.70
2022-10-14T20:40:29.502Z,14.60
2022-10-14T20:42:33.909Z,14.70
2022-10-14T20:46:40.147Z,14.60
2022-10-14T20:48:43.036Z,14.60
2022-10-14T20:50:45.515Z,14.60
2022-10-14T20:52:48.089Z,14.60
2022-10-14T20:54:50.658Z,14.60
2022-10-14T20:56:53.275Z,14.60
2022-10-14T20:58:55.995Z,14.70
2022-10-14T21:01:09.869Z,14.60
2022-10-14T21:03:12.487Z,14.60
2022-10-14T21:05:15.067Z,14.60
2022-10-14T21:07:19.170Z,14.60
2022-10-14T21:09:21.798Z,14.60
2022-10-14T21:11:24.904Z,14.70
2022-10-14T21:13:27.489Z,14.60
2022-10-14T21:15:29.996Z,14.70
2022-10-14T21:17:32.486Z,14.60
2022-10-14T21:19:35.214Z,14.60
2022-10-14T21:21:38.698Z,14.60
2022-10-14T21:23:41.186Z,14.70
2022-10-14T21:25:43.707Z,14.60
2022-10-14T21:27:46.261Z,14.50
2022-10-14T21:29:49.306Z,14.50
2022-10-14T21:31:51.867Z,14.40
2022-10-14T21:33:54.757Z,14.40
2022-10-14T21:35:59.042Z,14.40
2022-10-14T21:38:01.528Z,14.40
2022-10-14T21:40:04.773Z,14.40
2022-10-14T21:42:07.297Z,14.30
2022-10-14T21:44:10.986Z,14.30
2022-10-14T21:46:14.472Z,14.20
2022-10-14T21:48:17.157Z,14.20
2022-10-14T21:50:20.053Z,14.20
2022-10-14T21:52:22.735Z,14.20
2022-10-14T21:54:25.610Z,14.20
2022-10-14T21:56:28.322Z,14.10
2022-10-14T21:58:31.088Z,14.10
2022-10-14T22:00:33.610Z,14.10
2022-10-14T22:02:36.154Z,14.20
2022-10-14T22:04:38.680Z,14.10
2022-10-14T22:06:41.183Z,14.00
2022-10-14T22:08:44.799Z,14.00
2022-10-14T22:10:47.281Z,14.00
2022-10-14T22:12:49.790Z,13.90
2022-10-14T22:14:52.319Z,13.80
2022-10-14T22:16:54.850Z,13.70
2022-10-14T22:18:58.803Z,13.80
2022-10-14T22:21:03.185Z,13.80
2022-10-14T22:25:21.893Z,13.80
2022-10-14T22:27:24.698Z,13.70
2022-10-14T22:29:27.465Z,13.70
2022-10-14T22:31:32.149Z,13.70
2022-10-14T22:33:35.590Z,13.70
2022-10-14T22:35:38.085Z,13.60
2022-10-14T22:37:40.562Z,13.60
2022-10-14T22:39:43.082Z,13.60
2022-10-14T22:41:45.651Z,13.60
2022-10-14T22:43:49.089Z,13.50
2022-10-14T22:45:58.505Z,13.50
2022-10-14T22:48:01.117Z,13.50
2022-10-14T22:50:04.092Z,13.50
2022-10-14T22:52:06.709Z,13.60
2022-10-14T22:54:09.194Z,13.60
2022-10-14T22:56:12.376Z,13.60
2022-10-14T22:58:14.976Z,13.60
2022-10-14T23:00:17.750Z,13.60
2022-10-14T23:02:22.049Z,13.60
2022-10-14T23:04:25.081Z,13.60
2022-10-14T23:06:28.366Z,13.70
2022-10-14T23:08:31.827Z,13.60
2022-10-14T23:10:34.285Z,13.70
2022-10-14T23:12:36.845Z,13.70
2022-10-14T23:14:39.355Z,13.70
2022-10-14T23:16:41.825Z,13.70
2022-10-14T23:18:44.611Z,13.60
2022-10-14T23:20:47.101Z,13.50
2022-10-14T23:22:49.702Z,13.60
2022-10-14T23:24:52.196Z,13.60
2022-10-14T23:26:54.686Z,13.60
2022-10-14T23:28:58.172Z,13.70
2022-10-14T23:31:00.978Z,13.80
2022-10-14T23:33:04.247Z,13.80
2022-10-14T23:35:07.210Z,13.80
2022-10-14T23:37:09.666Z,13.80
2022-10-14T23:39:12.297Z,13.70
2022-10-14T23:43:29.442Z,13.70
2022-10-14T23:45:31.926Z,13.70
2022-10-14T23:47:34.509Z,13.70
2022-10-14T23:49:37.022Z,13.70
2022-10-14T23:51:39.667Z,13.70
2022-10-14T23:53:42.155Z,13.70
2022-10-14T23:55:44.856Z,13.60
2022-10-14T23:57:47.317Z,13.70
2022-10-14T23:59:49.810Z,13.70
